Time;durP1;ratioP1;P1;durP2;ratioP2;P2;SDS_P1;SDS_P2;PMS_P1;PMS_P2;Temp;Humidity;BMP_temperature;BMP_pressure;BME280_temperature;BME280_humidity;BME280_pressure;Samples;Min_cycle;Max_cycle;Signal;HPM_P1;HPM_P2
2022/02/07 00:02:10;;;;;;;15.30;7.10;;;;;;;-1.02;100.00;94724.75;5053519;28;20040;-47
2022/02/07 00:04:38;;;;;;;16.42;8.43;;;;;;;-1.07;100.00;94716.78;5059187;28;20048;-47
2022/02/07 00:07:06;;;;;;;14.38;7.38;;;;;;;-1.10;100.00;94706.84;5056947;28;20041;-48
2022/02/07 00:09:35;;;;;;;13.30;7.55;;;;;;;-1.09;100.00;94705.13;5054784;28;20037;-45
2022/02/07 00:12:02;;;;;;;19.58;7.55;;;;;;;-1.13;100.00;94696.97;5054489;28;20037;-44
2022/02/07 00:14:29;;;;;;;18.08;8.23;;;;;;;-1.11;100.00;94705.28;5053171;28;20585;-47
2022/02/07 00:16:56;;;;;;;18.95;9.82;;;;;;;-1.15;100.00;94704.00;5058219;28;20043;-44
2022/02/07 00:19:26;;;;;;;21.42;11.32;;;;;;;-1.14;100.00;94697.94;5059249;28;20106;-48
2022/02/07 00:21:53;;;;;;;16.30;9.00;;;;;;;-1.13;100.00;94701.28;5058092;28;20063;-50
2022/02/07 00:24:20;;;;;;;15.75;8.52;;;;;;;-1.09;100.00;94698.25;5056282;28;20052;-46
2022/02/07 00:26:47;;;;;;;17.83;8.77;;;;;;;-1.08;100.00;94689.63;5055979;28;20045;-47
2022/02/07 00:29:15;;;;;;;24.45;9.80;;;;;;;-1.08;100.00;94678.59;5056360;28;20045;-45
2022/02/07 00:31:43;;;;;;;14.05;8.52;;;;;;;-1.14;100.00;94680.03;5058829;28;20120;-50
2022/02/07 00:34:10;;;;;;;17.65;9.10;;;;;;;-1.28;100.00;94673.03;5056475;28;20534;-49
2022/02/07 00:36:37;;;;;;;15.65;8.88;;;;;;;-1.27;100.00;94670.31;5056179;28;20138;-46
2022/02/07 00:39:13;;;;;;;14.80;7.38;;;;;;;-1.29;100.00;94677.34;5056318;28;20049;-47
2022/02/07 00:41:48;;;;;;;17.77;8.50;;;;;;;-1.38;100.00;94668.09;5056428;28;20076;-46
2022/02/07 00:44:18;;;;;;;13.27;6.93;;;;;;;-1.44;100.00;94659.31;5058879;28;20045;-48
2022/02/07 00:46:52;;;;;;;20.33;8.07;;;;;;;-1.42;100.00;94665.06;5051565;28;20072;-44
2022/02/07 00:49:19;;;;;;;13.63;6.35;;;;;;;-1.40;100.00;94655.47;5061461;28;20048;-46
2022/02/07 00:51:47;;;;;;;15.02;7.53;;;;;;;-1.43;100.00;94645.56;5059813;28;20068;-46
2022/02/07 00:54:15;;;;;;;15.18;6.95;;;;;;;-1.33;100.00;94639.50;5060812;28;20095;-47
2022/02/07 00:56:44;;;;;;;12.50;7.10;;;;;;;-1.36;100.00;94636.31;5060439;28;20140;-50
2022/02/07 00:59:11;;;;;;;12.13;5.90;;;;;;;-1.43;100.00;94635.34;5058161;28;20428;-45
2022/02/07 01:01:38;;;;;;;11.20;5.85;;;;;;;-1.41;100.00;94628.31;5061553;28;20045;-46
2022/02/07 01:04:05;;;;;;;14.20;6.93;;;;;;;-1.41;100.00;94628.31;5054391;28;20076;-46
2022/02/07 01:06:41;;;;;;;11.35;6.28;;;;;;;-1.40;100.00;94614.59;5059227;28;20045;-48
2022/02/07 01:09:25;;;;;;;9.38;6.00;;;;;;;-1.39;100.00;94605.16;5054645;28;20045;-44
2022/02/07 01:14:35;;;;;;;14.50;7.32;;;;;;;-1.32;100.00;94605.31;5060723;28;20131;-46
2022/02/07 01:57:59;;;;;;;16.13;7.85;;;;;;;-1.60;100.00;94541.84;5057273;28;20068;-45
2022/02/07 02:00:30;;;;;;;12.85;7.10;;;;;;;-1.65;100.00;94531.31;5055892;28;20045;-48
2022/02/07 02:02:59;;;;;;;14.98;7.25;;;;;;;-1.60;100.00;94534.19;5061318;28;20045;-46
2022/02/07 02:05:38;;;;;;;17.02;6.18;;;;;;;-1.63;100.00;94531.94;5058451;28;20047;-44
2022/02/07 02:08:15;;;;;;;15.25;6.88;;;;;;;-1.59;100.00;94528.09;5057557;28;20124;-46
2022/02/07 02:10:49;;;;;;;15.70;7.80;;;;;;;-1.62;100.00;94513.09;5058493;28;20939;-45
2022/02/07 02:13:24;;;;;;;20.90;8.52;;;;;;;-1.68;100.00;94506.09;5061673;28;20056;-48
2022/02/07 02:37:30;;;;;;;15.43;6.75;;;;;;;-1.80;100.00;94496.22;5061647;28;20049;-48
2022/02/07 02:45:33;;;;;;;34.17;11.38;;;;;;;-1.78;100.00;94489.22;5020480;28;20126;-46
2022/02/07 02:48:30;;;;;;;36.60;11.70;;;;;;;-1.80;100.00;94487.75;5054871;28;20041;-46
2022/02/07 02:51:06;;;;;;;20.70;9.35;;;;;;;-1.75;100.00;94475.31;5058510;28;20072;-46
2022/02/07 02:53:34;;;;;;;61.40;21.20;;;;;;;-1.79;100.00;94476.59;5058944;28;20040;-47
2022/02/07 02:56:01;;;;;;;104.13;38.58;;;;;;;-1.79;100.00;94477.38;5054063;28;20048;-46
2022/02/07 02:58:47;;;;;;;119.40;35.47;;;;;;;-1.76;100.00;94466.84;5059817;28;20592;-45
2022/02/07 03:01:14;;;;;;;38.40;16.02;;;;;;;-1.65;100.00;94468.25;5056044;28;20117;-47
2022/02/07 03:03:50;;;;;;;24.08;9.68;;;;;;;-1.46;100.00;94456.88;5057972;28;20049;-45
2022/02/07 03:06:17;;;;;;;14.48;8.43;;;;;;;-1.21;100.00;94443.97;5056924;28;20053;-47
2022/02/07 03:08:43;;;;;;;16.67;8.23;;;;;;;-1.02;100.00;94438.44;5057248;28;20045;-48
2022/02/07 03:11:16;;;;;;;17.27;7.55;;;;;;;-0.83;100.00;94444.06;5053520;28;20050;-49
2022/02/07 03:13:54;;;;;;;12.05;6.45;;;;;;;-0.42;100.00;94448.91;5056567;28;20052;-47
2022/02/07 03:16:53;;;;;;;10.75;6.97;;;;;;;0.01;100.00;94444.06;5047045;28;20053;-45
2022/02/07 03:19:20;;;;;;;15.10;7.90;;;;;;;0.06;100.00;94439.22;5057681;28;20037;-51
2022/02/07 03:21:54;;;;;;;17.00;7.22;;;;;;;0.17;100.00;94433.66;5075064;28;20053;-50
2022/02/07 03:24:21;;;;;;;16.55;7.10;;;;;;;0.18;100.00;94425.00;5059043;28;20394;-48
2022/02/07 03:26:56;;;;;;;27.45;9.30;;;;;;;0.25;100.00;94424.28;5054212;28;20064;-46
2022/02/07 03:29:30;;;;;;;17.20;9.68;;;;;;;0.26;100.00;94436.91;5052748;28;20059;-49
2022/02/07 03:31:57;;;;;;;18.30;8.23;;;;;;;0.28;100.00;94449.56;5059728;28;20036;-47
2022/02/07 03:34:42;;;;;;;20.50;8.43;;;;;;;0.24;100.00;94454.22;5054571;28;20068;-48
2022/02/07 03:37:12;;;;;;;30.17;11.63;;;;;;;0.16;100.00;94439.75;5054630;28;20063;-47
2022/02/07 03:39:39;;;;;;;27.08;10.40;;;;;;;0.04;100.00;94437.78;5059421;28;20041;-46
2022/02/07 03:42:06;;;;;;;17.25;8.75;;;;;;;-0.17;100.00;94441.81;5058439;28;20106;-46
2022/02/07 03:44:35;;;;;;;20.63;8.25;;;;;;;-0.23;100.00;94442.53;5056516;28;20048;-46
2022/02/07 03:47:02;;;;;;;18.13;9.15;;;;;;;-0.45;100.00;94444.13;5055247;28;20506;-45
2022/02/07 03:49:31;;;;;;;24.63;12.45;;;;;;;-0.61;100.00;94440.75;5053410;28;20037;-45
2022/02/07 03:51:58;;;;;;;20.70;9.15;;;;;;;-0.68;100.00;94436.50;5059326;28;20048;-46
2022/02/07 03:54:25;;;;;;;19.02;9.02;;;;;;;-0.77;100.00;94420.41;5070582;28;20391;-49
2022/02/07 03:56:55;;;;;;;13.60;6.88;;;;;;;-0.90;100.00;94430.38;5059619;28;20163;-46
2022/02/07 03:59:22;;;;;;;14.73;6.70;;;;;;;-0.98;100.00;94419.25;5052545;28;20040;-48
2022/02/07 04:01:50;;;;;;;13.70;7.40;;;;;;;-1.09;100.00;94422.19;5051700;28;20039;-47
2022/02/07 04:04:24;;;;;;;10.25;5.82;;;;;;;-1.16;100.00;94421.28;5054581;28;20036;-45
2022/02/07 04:06:52;;;;;;;13.75;6.63;;;;;;;-1.26;100.00;94423.22;5069847;28;20851;-46
2022/02/07 04:09:32;;;;;;;20.10;8.30;;;;;;;-1.33;100.00;94424.88;5054991;28;20123;-47
2022/02/07 04:12:23;;;;;;;14.32;6.82;;;;;;;-1.54;100.00;94403.25;5053376;28;20052;-47
2022/02/07 04:14:59;;;;;;;10.48;6.15;;;;;;;-1.43;100.00;94425.88;5070229;28;20044;-46
2022/02/07 04:17:29;;;;;;;12.57;7.00;;;;;;;-1.48;100.00;94417.91;5055028;28;20044;-47
2022/02/07 04:20:00;;;;;;;15.45;7.03;;;;;;;-1.50;100.00;94419.84;5058038;28;20418;-49
2022/02/07 04:22:37;;;;;;;14.48;6.88;;;;;;;-1.55;100.00;94422.09;5058314;28;20562;-48
2022/02/07 04:25:19;;;;;;;17.15;8.90;;;;;;;-1.54;100.00;94418.59;5060854;28;20445;-48
2022/02/07 04:27:57;;;;;;;24.25;12.80;;;;;;;-1.51;100.00;94408.03;5060047;28;20040;-49
2022/02/07 04:30:27;;;;;;;24.63;12.52;;;;;;;-1.50;100.00;94404.50;5061890;28;20477;-48
2022/02/07 04:32:54;;;;;;;27.55;11.23;;;;;;;-1.51;100.00;94397.81;5061703;28;20048;-47
2022/02/07 04:35:21;;;;;;;41.80;15.93;;;;;;;-1.40;100.00;94394.88;5054888;28;20724;-46
2022/02/07 04:37:48;;;;;;;25.30;11.20;;;;;;;-1.36;100.00;94391.03;5056640;28;20530;-46
2022/02/07 04:40:14;;;;;;;21.52;10.25;;;;;;;-1.25;100.00;94386.50;5057555;28;20106;-46
2022/02/07 04:42:43;;;;;;;17.85;9.93;;;;;;;-1.16;100.00;94395.72;5059441;28;20058;-49
2022/02/07 04:53:52;;;;;;;9.90;5.60;;;;;;;-0.38;100.00;94373.38;5045522;28;20053;-48
2022/02/07 05:04:01;;;;;;;10.77;6.03;;;;;;;2.04;100.00;94357.72;5060816;28;20051;-50
2022/02/07 05:14:50;;;;;;;18.42;8.88;;;;;;;2.20;100.00;94369.47;5059071;28;20452;-47
2022/02/07 05:17:20;;;;;;;29.33;13.88;;;;;;;1.81;100.00;94397.25;5057806;28;20049;-46
2022/02/07 05:20:07;;;;;;;24.15;11.57;;;;;;;1.48;100.00;94400.38;5056920;28;20056;-48
2022/02/07 05:22:35;;;;;;;19.40;9.82;;;;;;;1.30;100.00;94402.59;5056838;28;20457;-46
2022/02/07 05:25:38;;;;;;;22.92;9.05;;;;;;;1.10;100.00;94412.66;5021855;28;20081;-45
2022/02/07 05:28:24;;;;;;;22.33;11.73;;;;;;;0.92;100.00;94416.44;5054299;28;20068;-47
2022/02/07 05:31:06;;;;;;;24.42;10.40;;;;;;;0.84;100.00;94403.69;5058717;28;20438;-51
2022/02/07 05:33:44;;;;;;;36.63;16.77;;;;;;;0.60;100.00;94398.91;5056360;28;20132;-49
2022/02/07 05:36:29;;;;;;;16.70;8.80;;;;;;;0.35;100.00;94394.88;5060341;28;20057;-51
2022/02/07 05:39:05;;;;;;;13.18;6.38;;;;;;;0.22;100.00;94383.66;5058139;28;20069;-49
2022/02/07 05:41:48;;;;;;;14.75;7.90;;;;;;;0.12;100.00;94374.47;5058204;28;20044;-51
2022/02/07 05:44:39;;;;;;;28.25;10.60;;;;;;;0.13;100.00;94365.81;5060065;28;20056;-47
2022/02/07 05:47:21;;;;;;;12.18;7.30;;;;;;;0.34;100.00;94366.84;5060148;28;20045;-44
2022/02/07 05:50:08;;;;;;;11.65;6.70;;;;;;;0.71;100.00;94360.00;5050770;28;20090;-46
2022/02/07 05:52:54;;;;;;;9.75;4.88;;;;;;;1.25;100.00;94369.78;5061138;28;20529;-48
2022/02/07 05:55:26;;;;;;;5.85;2.35;;;;;;;1.51;100.00;94358.13;5058553;28;20072;-46
2022/02/07 05:58:07;;;;;;;6.97;3.97;;;;;;;1.99;100.00;94386.50;5056470;28;20044;-47
2022/02/07 06:00:58;;;;;;;6.13;3.55;;;;;;;2.38;100.00;94389.50;5058416;28;20069;-45
2022/02/07 06:03:25;;;;;;;5.95;3.60;;;;;;;2.69;100.00;94381.31;5057480;28;20421;-47
2022/02/07 06:06:01;;;;;;;;;;;;;;;2.94;100.00;94378.25;5055922;28;20115;-51
2022/02/07 06:08:29;;;;;;;3.22;2.17;;;;;;;3.14;100.00;94379.06;5056127;28;19924;-47
2022/02/07 06:10:57;;;;;;;9.95;3.53;;;;;;;3.32;100.00;94380.28;5051086;28;20124;-46
2022/02/07 06:13:24;;;;;;;13.07;5.03;;;;;;;3.49;100.00;94376.31;5059414;28;20063;-48
2022/02/07 06:15:57;;;;;;;7.80;3.08;;;;;;;3.61;100.00;94364.44;5055727;28;20049;-48
2022/02/07 06:18:25;;;;;;;13.77;5.65;;;;;;;3.76;100.00;94378.88;5057046;28;20033;-46
2022/02/07 06:21:00;;;;;;;16.25;8.15;;;;;;;3.75;100.00;94379.91;5056558;28;20040;-50
2022/02/07 06:23:28;;;;;;;16.85;10.60;;;;;;;3.48;95.79;94379.91;5070873;28;20055;-49
2022/02/07 06:25:57;;;;;;;83.25;26.33;;;;;;;3.07;95.79;94380.81;5066447;28;20104;-47
2022/02/07 06:28:27;;;;;;;40.40;18.92;;;;;;;2.74;98.03;94385.88;5057431;28;20229;-45
2022/02/07 06:30:56;;;;;;;41.90;16.42;;;;;;;2.61;98.68;94394.34;5054630;28;20425;-49
2022/02/07 06:33:24;;;;;;;27.95;12.07;;;;;;;2.17;99.00;94372.41;5061148;28;20037;-47
2022/02/07 06:35:58;;;;;;;31.92;13.20;;;;;;;1.80;100.00;94376.91;5062244;28;20052;-45
2022/02/07 06:38:27;;;;;;;;;;;;;;;1.83;100.00;94377.31;5057754;28;20136;-49
2022/02/07 06:40:54;;;;;;;22.00;11.93;;;;;;;1.76;100.00;94385.97;5057154;28;20394;-45
2022/02/07 06:43:22;;;;;;;27.00;13.65;;;;;;;1.73;100.00;94384.59;5063401;28;20044;-46
2022/02/07 06:45:50;;;;;;;32.55;15.10;;;;;;;1.72;100.00;94376.06;5059771;28;20041;-45
2022/02/07 06:48:18;;;;;;;33.10;16.38;;;;;;;1.77;100.00;94382.44;5058777;28;20041;-44
2022/02/07 06:50:45;;;;;;;34.72;18.48;;;;;;;1.85;100.00;94369.44;5060196;28;20048;-46
2022/02/07 06:53:12;;;;;;;22.95;13.30;;;;;;;1.89;100.00;94360.38;5058333;28;20585;-50
2022/02/07 06:55:41;;;;;;;20.48;11.80;;;;;;;2.03;100.00;94362.03;5056621;28;20056;-46
2022/02/07 06:58:09;;;;;;;31.17;13.50;;;;;;;2.11;100.00;94368.81;5054461;28;20135;-45
2022/02/07 07:00:37;;;;;;;35.03;18.33;;;;;;;2.20;100.00;94374.59;5061008;28;20057;-46
2022/02/07 07:03:07;;;;;;;29.20;14.45;;;;;;;2.28;100.00;94370.06;5058568;28;20047;-46
2022/02/07 07:05:34;;;;;;;22.88;10.55;;;;;;;2.34;100.00;94368.53;5058652;28;20043;-47
2022/02/07 07:08:02;;;;;;;22.98;11.00;;;;;;;2.38;100.00;94354.31;5056991;28;20049;-48
2022/02/07 07:10:29;;;;;;;22.67;11.32;;;;;;;2.42;100.00;94352.16;5059390;28;20063;-49
2022/02/07 07:13:10;;;;;;;19.50;10.75;;;;;;;2.46;100.00;94354.13;5053236;28;20051;-50
2022/02/07 07:15:47;;;;;;;20.33;9.60;;;;;;;2.60;100.00;94365.25;5056862;28;20044;-47
2022/02/07 07:18:17;;;;;;;34.85;17.88;;;;;;;2.81;100.00;94348.09;5057911;28;20057;-49
2022/02/07 07:20:47;;;;;;;36.53;14.60;;;;;;;3.02;100.00;94347.16;5057976;28;20106;-50
2022/02/07 07:23:14;;;;;;;27.65;11.48;;;;;;;3.21;100.00;94343.84;5058371;28;20492;-48
2022/02/07 07:25:45;;;;;;;17.50;10.35;;;;;;;3.38;100.00;94338.28;5061492;28;20110;-46
2022/02/07 07:28:16;;;;;;;22.23;9.32;;;;;;;3.54;100.00;94337.88;5056514;28;20040;-48
2022/02/07 07:30:51;;;;;;;21.08;10.50;;;;;;;3.78;100.00;94327.97;5057202;28;20048;-48
2022/02/07 07:33:23;;;;;;;27.33;9.10;;;;;;;4.02;100.00;94329.91;5055764;28;20051;-47
2022/02/07 07:35:52;;;;;;;20.85;10.88;;;;;;;4.32;100.00;94329.44;5054986;28;20588;-49
2022/02/07 07:38:20;;;;;;;17.00;9.73;;;;;;;4.60;100.00;94315.41;5059533;28;20044;-52
2022/02/07 07:40:48;;;;;;;19.00;9.88;;;;;;;4.82;99.50;94320.28;5052986;28;20068;-50
2022/02/07 07:43:21;;;;;;;14.98;8.00;;;;;;;5.04;99.04;94316.38;5051331;28;20064;-47
2022/02/07 07:46:03;;;;;;;13.27;6.82;;;;;;;5.25;97.86;94311.84;5048931;28;20044;-47
2022/02/07 07:49:13;;;;;;;19.73;8.85;;;;;;;5.35;95.78;94312.19;4982065;28;20050;-48
2022/02/07 07:52:07;;;;;;;21.85;12.15;;;;;;;5.43;95.52;94293.81;4964840;28;20058;-47
2022/02/07 08:03:17;;;;;;;29.58;14.70;;;;;;;5.60;93.69;94268.25;5049474;28;20443;-48
2022/02/07 08:05:54;;;;;;;31.85;12.68;;;;;;;5.63;93.03;94282.53;5051658;28;20131;-46
2022/02/07 08:08:41;;;;;;;29.57;12.43;;;;;;;5.73;93.18;94278.44;5049769;28;20045;-51
2022/02/07 08:11:12;;;;;;;34.42;10.85;;;;;;;5.86;94.33;94267.19;5052295;28;20565;-47
2022/02/07 08:13:45;;;;;;;18.50;8.98;;;;;;;6.05;94.69;94262.03;5049938;28;20059;-46
2022/02/07 08:16:21;;;;;;;14.00;7.13;;;;;;;6.15;94.38;94267.50;5051164;28;21103;-46
2022/02/07 08:18:48;;;;;;;15.20;7.45;;;;;;;6.30;93.88;94252.41;5055059;28;20040;-46
2022/02/07 08:21:15;;;;;;;11.77;7.00;;;;;;;6.45;93.27;94246.06;5052868;28;20069;-47
2022/02/07 08:23:43;;;;;;;21.65;8.77;;;;;;;6.58;92.29;94243.28;5051299;28;20052;-49
2022/02/07 08:26:10;;;;;;;79.78;41.35;;;;;;;6.68;92.06;94233.22;5051564;28;20052;-52
2022/02/07 08:28:47;;;;;;;26.05;14.57;;;;;;;6.81;91.47;94234.03;5047278;28;20089;-48
2022/02/07 08:31:16;;;;;;;18.85;9.95;;;;;;;6.87;89.56;94226.16;5053499;28;20064;-44
2022/02/07 08:33:43;;;;;;;13.60;6.85;;;;;;;6.91;89.33;94205.78;5048698;28;20848;-51
2022/02/07 08:36:10;;;;;;;12.40;7.55;;;;;;;6.91;89.91;94195.44;5050196;28;20145;-46
2022/02/07 08:38:36;;;;;;;15.02;9.32;;;;;;;6.92;91.33;94189.25;5052866;28;20056;-46
2022/02/07 08:41:03;;;;;;;16.05;8.85;;;;;;;7.05;90.54;94201.97;5052856;28;20041;-44
2022/02/07 08:43:30;;;;;;;19.38;8.30;;;;;;;7.03;89.81;94188.47;5050460;28;20048;-46
2022/02/07 08:45:57;;;;;;;16.95;8.50;;;;;;;7.16;89.03;94191.84;5050882;28;20048;-45
2022/02/07 08:48:24;;;;;;;18.27;12.65;;;;;;;7.27;88.55;94207.41;5051209;28;20049;-47
2022/02/07 08:50:54;;;;;;;13.48;8.52;;;;;;;7.42;86.67;94206.16;5051445;28;20069;-45
2022/02/07 08:53:23;;;;;;;20.80;7.85;;;;;;;7.49;85.49;94180.94;5054564;28;20457;-47
2022/02/07 08:55:52;;;;;;;22.85;9.43;;;;;;;7.61;85.96;94168.72;5052450;28;20051;-47
2022/02/07 08:58:23;;;;;;;21.95;11.15;;;;;;;7.72;85.35;94168.94;5047901;28;20041;-45
2022/02/07 09:10:44;;;;;;;20.92;11.65;;;;;;;8.16;83.02;94149.31;5058334;28;20056;-47
2022/02/07 09:13:12;;;;;;;14.80;8.63;;;;;;;8.31;82.52;94160.97;5060452;28;20143;-48
2022/02/07 09:15:47;;;;;;;19.83;10.65;;;;;;;8.41;81.58;94176.72;5052380;28;20040;-47
2022/02/07 09:18:13;;;;;;;17.25;7.32;;;;;;;8.57;79.72;94176.00;5057860;28;20433;-47
2022/02/07 09:20:43;;;;;;;13.30;7.50;;;;;;;8.72;79.32;94169.47;5056069;28;20098;-45
2022/02/07 09:23:10;;;;;;;20.42;9.98;;;;;;;8.83;78.97;94163.44;5056211;28;20055;-45
2022/02/07 09:25:38;;;;;;;19.98;8.85;;;;;;;8.95;78.91;94158.16;5056019;28;20048;-44
2022/02/07 09:28:05;;;;;;;13.43;7.72;;;;;;;9.14;78.35;94163.88;5050644;28;20040;-44
2022/02/07 09:30:32;;;;;;;12.80;8.13;;;;;;;9.28;77.61;94149.53;5057843;28;20449;-44
2022/02/07 09:32:59;;;;;;;15.77;8.50;;;;;;;9.53;76.33;94166.50;5060106;28;20497;-46
2022/02/07 09:35:26;;;;;;;20.30;10.93;;;;;;;9.77;74.70;94167.84;5052066;28;20072;-46
2022/02/07 09:37:53;;;;;;;22.83;9.60;;;;;;;9.99;73.90;94159.25;5057656;28;20461;-47
2022/02/07 09:40:21;;;;;;;14.52;8.63;;;;;;;10.18;73.42;94166.75;5060668;28;20090;-44
2022/02/07 09:42:55;;;;;;;17.90;10.15;;;;;;;10.39;73.48;94152.94;5050250;28;20549;-44
2022/02/07 09:45:37;;;;;;;22.13;9.20;;;;;;;10.58;73.11;94144.78;5051966;28;20060;-47
2022/02/07 09:48:08;;;;;;;14.18;7.53;;;;;;;10.80;73.05;94135.06;5054420;28;20045;-45
2022/02/07 09:50:37;;;;;;;44.22;20.38;;;;;;;10.90;71.47;94135.16;5052434;28;20048;-45
2022/02/07 09:53:06;;;;;;;22.50;9.25;;;;;;;10.84;71.32;94117.91;5051322;28;20463;-45
2022/02/07 09:55:33;;;;;;;20.02;9.15;;;;;;;10.90;71.95;94110.91;5056182;28;20103;-50
2022/02/07 09:58:00;;;;;;;18.42;11.57;;;;;;;10.68;72.45;94103.22;5055056;28;20409;-47
2022/02/07 10:00:35;;;;;;;18.05;9.65;;;;;;;10.59;71.94;94099.47;5056782;28;20041;-46
2022/02/07 10:05:47;;;;;;;15.93;8.55;;;;;;;10.46;73.38;94090.25;5055481;28;20087;-44
2022/02/07 10:11:27;;;;;;;18.58;9.77;;;;;;;10.63;68.53;94087.53;5053684;28;20051;-46
2022/02/07 10:46:01;;;;;;;9.13;5.75;;;;;;;10.90;61.85;94009.31;5053767;28;20056;-51
2022/02/07 10:48:37;;;;;;;14.68;7.35;;;;;;;10.93;62.01;94000.19;5052863;28;20045;-44
2022/02/07 10:51:12;;;;;;;14.93;7.45;;;;;;;11.09;61.42;93999.22;5054816;28;20056;-47
2022/02/07 10:53:45;;;;;;;14.73;7.50;;;;;;;11.20;59.91;93989.63;5048742;28;20048;-45
2022/02/07 10:56:16;;;;;;;24.60;9.45;;;;;;;11.24;59.89;93983.66;5054661;28;20056;-44
2022/02/07 10:58:43;;;;;;;15.27;6.53;;;;;;;11.23;58.84;93969.06;5056815;28;20036;-44
2022/02/07 11:01:16;;;;;;;15.85;6.05;;;;;;;11.20;58.45;93956.56;5053379;28;20065;-44
2022/02/07 11:03:49;;;;;;;9.73;5.47;;;;;;;11.18;59.03;93945.59;5055908;28;20510;-44
2022/02/07 11:06:21;;;;;;;28.88;12.65;;;;;;;11.06;58.98;93950.25;5057037;28;20067;-45
2022/02/07 11:27:49;;;;;;;11.07;6.47;;;;;;;10.83;58.90;93905.34;5052825;28;20477;-50
2022/02/07 11:30:53;;;;;;;8.40;5.63;;;;;;;10.80;59.16;93908.44;5059179;28;20041;-48
2022/02/07 11:33:49;;;;;;;9.27;5.22;;;;;;;10.72;59.52;93895.94;5057756;28;20101;-45
2022/02/07 11:36:35;;;;;;;12.07;5.63;;;;;;;10.77;58.64;93892.53;5055513;28;20055;-44
2022/02/07 11:39:16;;;;;;;38.80;20.52;;;;;;;10.79;58.19;93896.47;5054574;28;20045;-50
2022/02/07 11:41:55;;;;;;;26.15;13.40;;;;;;;10.56;59.73;93876.06;5054742;28;20033;-48
2022/02/07 11:44:49;;;;;;;18.23;6.63;;;;;;;10.39;61.01;93882.25;5050860;28;20506;-49
2022/02/07 11:47:31;;;;;;;11.70;4.30;;;;;;;10.51;59.93;93885.44;5048041;28;20049;-44
2022/02/07 11:50:02;;;;;;;17.17;5.57;;;;;;;10.59;58.96;93885.94;5049908;28;20522;-48
2022/02/07 11:52:31;;;;;;;22.77;6.75;;;;;;;10.57;59.48;93885.44;5055189;28;20363;-48
2022/02/07 11:55:04;;;;;;;7.22;3.42;;;;;;;10.48;59.40;93883.31;5054284;28;20045;-49
2022/02/07 11:57:37;;;;;;;7.57;2.95;;;;;;;10.41;59.28;93880.16;5053379;28;20583;-44
2022/02/07 12:00:16;;;;;;;7.38;3.65;;;;;;;10.43;59.19;93867.66;5053746;28;20037;-47
2022/02/07 12:02:47;;;;;;;8.18;4.65;;;;;;;10.41;58.93;93869.75;5053341;28;20072;-45
2022/02/07 12:05:19;;;;;;;6.78;3.25;;;;;;;10.38;57.71;93859.84;5046744;28;20069;-49
2022/02/07 12:08:03;;;;;;;18.88;8.18;;;;;;;10.34;56.00;93858.78;5051555;28;20538;-49
2022/02/07 12:13:05;;;;;;;14.10;8.18;;;;;;;10.21;58.65;93843.56;5049676;28;20045;-48
2022/02/07 12:15:49;;;;;;;10.33;6.03;;;;;;;10.35;58.19;93862.16;5054402;28;20083;-45
2022/02/07 12:18:15;;;;;;;7.57;5.40;;;;;;;10.35;58.12;93862.16;5053442;28;20530;-51
2022/02/07 12:20:44;;;;;;;16.35;7.53;;;;;;;10.43;58.47;93862.47;5050204;28;20051;-46
2022/02/07 12:23:17;;;;;;;34.10;16.13;;;;;;;10.48;59.10;93857.28;5053699;28;20049;-50
2022/02/07 12:25:50;;;;;;;67.15;35.28;;;;;;;10.57;57.83;93862.00;5048824;28;20079;-50
2022/02/07 12:28:34;;;;;;;35.13;19.27;;;;;;;10.55;57.64;93859.63;5053174;28;20052;-47
2022/02/07 12:31:25;;;;;;;20.88;7.68;;;;;;;10.50;57.30;93852.59;5050805;28;20049;-50
2022/02/07 12:34:04;;;;;;;28.85;15.43;;;;;;;10.48;57.14;93846.88;5052615;28;20045;-47
2022/02/07 12:36:35;;;;;;;29.50;13.40;;;;;;;10.36;57.98;93845.53;5055957;28;20115;-47
2022/02/07 12:39:13;;;;;;;22.08;11.30;;;;;;;10.41;59.29;93843.72;5053236;28;20530;-47
2022/02/07 12:41:41;;;;;;;34.35;17.77;;;;;;;10.43;58.64;93846.84;5053305;28;20044;-50
2022/02/07 12:44:09;;;;;;;46.35;23.92;;;;;;;10.08;59.17;93853.41;5048895;28;20048;-49
2022/02/07 12:46:40;;;;;;;27.40;12.57;;;;;;;9.99;58.87;93852.28;5053800;28;20045;-47
2022/02/07 12:49:13;;;;;;;47.30;27.08;;;;;;;10.03;58.83;93850.78;5053945;28;20043;-49
2022/02/07 12:51:46;;;;;;;26.70;10.27;;;;;;;9.95;58.21;93848.63;5052486;28;20041;-48
2022/02/07 12:54:16;;;;;;;18.83;9.98;;;;;;;9.95;59.31;93846.03;5051446;28;20033;-48
2022/02/07 12:56:44;;;;;;;30.55;14.82;;;;;;;9.95;60.06;93843.44;5053419;28;20106;-47
2022/02/07 12:59:10;;;;;;;37.47;18.10;;;;;;;9.98;59.57;93836.97;5054479;28;20472;-50
2022/02/07 13:01:41;;;;;;;31.70;13.25;;;;;;;9.98;60.63;93829.94;5055010;28;20567;-47
2022/02/07 13:04:19;;;;;;;19.15;7.65;;;;;;;9.97;61.07;93833.56;5049797;28;20076;-47
2022/02/07 13:06:52;;;;;;;25.50;12.95;;;;;;;9.91;61.43;93834.56;5052465;28;20102;-48
2022/02/07 13:09:32;;;;;;;17.63;8.70;;;;;;;9.76;64.09;93822.25;5052964;28;20513;-52
2022/02/07 13:14:41;;;;;;;51.05;20.33;;;;;;;9.49;63.24;93811.91;5052295;28;20049;-48
2022/02/07 13:17:09;;;;;;;30.52;14.70;;;;;;;9.48;63.66;93815.53;5052565;28;20427;-49
2022/02/07 13:19:41;;;;;;;16.65;10.77;;;;;;;9.30;63.27;93804.47;5054982;28;20063;-46
2022/02/07 13:22:10;;;;;;;18.27;10.23;;;;;;;9.31;63.47;93811.25;5054470;28;20603;-47
2022/02/07 13:24:38;;;;;;;13.23;6.68;;;;;;;9.29;64.27;93813.31;5053084;28;20048;-47
2022/02/07 13:27:08;;;;;;;9.02;3.80;;;;;;;9.20;63.88;93814.81;5051639;28;20573;-47
2022/02/07 13:29:42;;;;;;;6.78;4.20;;;;;;;9.14;64.13;93826.16;5051249;28;21185;-48
2022/02/07 13:32:09;;;;;;;10.38;5.57;;;;;;;9.05;64.55;93814.66;5052760;28;20037;-47
2022/02/07 13:34:38;;;;;;;10.68;4.75;;;;;;;9.01;63.92;93816.19;5052363;28;20052;-46
2022/02/07 13:37:16;;;;;;;8.38;4.55;;;;;;;8.95;64.41;93813.53;5052531;28;20052;-50
2022/02/07 13:39:53;;;;;;;13.57;4.78;;;;;;;8.94;65.00;93806.75;5053838;28;20044;-48
2022/02/07 13:42:37;;;;;;;14.63;6.88;;;;;;;8.93;65.86;93805.22;5053870;28;20375;-47
2022/02/07 13:45:11;;;;;;;16.58;7.22;;;;;;;8.93;66.06;93799.22;5049702;28;20053;-45
2022/02/07 13:47:40;;;;;;;10.10;5.60;;;;;;;8.92;66.17;93793.25;5049917;28;20075;-50
2022/02/07 13:50:12;;;;;;;12.13;5.70;;;;;;;8.82;67.30;93787.94;5048688;28;20068;-47
2022/02/07 13:52:44;;;;;;;14.95;6.30;;;;;;;8.79;67.90;93784.03;5054226;28;20422;-47
2022/02/07 13:55:26;;;;;;;14.18;7.28;;;;;;;8.68;68.26;93772.00;5056463;28;20453;-48
2022/02/07 13:58:01;;;;;;;16.98;8.90;;;;;;;8.56;70.09;93769.53;5057065;28;20552;-48
2022/02/07 14:00:33;;;;;;;12.23;5.80;;;;;;;8.65;68.52;93766.50;5052917;28;20516;-46
2022/02/07 14:03:03;;;;;;;16.42;7.60;;;;;;;8.61;69.50;93759.19;5050640;28;20044;-47
2022/02/07 14:05:41;;;;;;;24.25;7.85;;;;;;;8.65;69.98;93756.91;5053390;28;20047;-47
2022/02/07 14:08:36;;;;;;;20.23;7.45;;;;;;;8.65;69.40;93751.72;5057411;28;20056;-50
2022/02/07 14:11:07;;;;;;;17.95;6.18;;;;;;;8.64;69.59;93752.72;5055634;28;20049;-47
2022/02/07 14:13:37;;;;;;;19.70;7.57;;;;;;;8.65;70.40;93750.94;5057373;28;20044;-48
2022/02/07 14:16:05;;;;;;;12.88;7.03;;;;;;;8.71;69.23;93768.09;5050492;28;20679;-50
2022/02/07 14:18:36;;;;;;;13.30;5.65;;;;;;;8.65;70.06;93756.13;5053036;28;20123;-45
2022/02/07 14:21:10;;;;;;;24.17;6.72;;;;;;;8.57;70.12;93745.16;5050110;28;20049;-46
2022/02/07 14:23:39;;;;;;;10.13;4.55;;;;;;;8.63;69.76;93758.19;5050626;28;20114;-47
2022/02/07 14:26:33;;;;;;;8.73;4.53;;;;;;;8.50;70.21;93744.56;5053429;28;20124;-48
2022/02/07 14:29:00;;;;;;;12.43;6.13;;;;;;;8.45;70.52;93736.72;5050177;28;20419;-50
2022/02/07 14:31:29;;;;;;;4.25;2.85;;;;;;;8.46;69.87;93742.69;5052361;28;20072;-50
2022/02/07 14:33:56;;;;;;;6.53;3.22;;;;;;;8.48;70.07;93751.81;5054657;28;20048;-47
2022/02/07 14:36:27;;;;;;;7.25;3.63;;;;;;;8.50;69.73;93741.97;5052810;28;20057;-46
2022/02/07 14:38:54;;;;;;;7.65;4.80;;;;;;;8.59;69.17;93748.28;5048952;28;20037;-47
2022/02/07 14:41:23;;;;;;;7.78;4.75;;;;;;;8.49;69.52;93748.16;5053377;28;20930;-45
2022/02/07 14:43:53;;;;;;;6.88;3.55;;;;;;;8.54;70.58;93735.25;5049822;28;20048;-49
2022/02/07 14:46:24;;;;;;;14.90;5.90;;;;;;;8.52;70.60;93721.75;5048429;28;20499;-49